sensor_id;sensor_type;location;lat;lon;timestamp;pressure;altitude;pressure_sealevel;temperature;humidity
9855;BME280;4966;48.112;9.282;2023-02-11T00:00:21;96554.84;;;-3.80;78.16
9855;BME280;4966;48.112;9.282;2023-02-11T00:02:47;96552.97;;;-3.87;78.13
9855;BME280;4966;48.112;9.282;2023-02-11T00:05:12;96555.81;;;-3.88;78.60
9855;BME280;4966;48.112;9.282;2023-02-11T00:07:37;96547.00;;;-3.95;78.40
9855;BME280;4966;48.112;9.282;2023-02-11T00:10:04;96540.06;;;-3.96;78.53
9855;BME280;4966;48.112;9.282;2023-02-11T00:12:33;96540.84;;;-4.02;78.44
9855;BME280;4966;48.112;9.282;2023-02-11T00:14:58;96535.91;;;-4.19;79.05
9855;BME280;4966;48.112;9.282;2023-02-11T00:17:24;96536.75;;;-4.05;78.82
9855;BME280;4966;48.112;9.282;2023-02-11T00:19:52;96536.91;;;-4.20;78.76
9855;BME280;4966;48.112;9.282;2023-02-11T00:22:18;96530.59;;;-4.19;79.51
9855;BME280;4966;48.112;9.282;2023-02-11T00:24:44;96526.38;;;-3.87;77.72
9855;BME280;4966;48.112;9.282;2023-02-11T00:27:09;96523.47;;;-4.12;78.78
9855;BME280;4966;48.112;9.282;2023-02-11T00:29:35;96530.47;;;-3.97;78.28
9855;BME280;4966;48.112;9.282;2023-02-11T00:32:01;96527.94;;;-4.19;79.58
9855;BME280;4966;48.112;9.282;2023-02-11T00:34:32;96521.63;;;-4.11;79.26
9855;BME280;4966;48.112;9.282;2023-02-11T00:36:58;96519.13;;;-4.19;79.62
9855;BME280;4966;48.112;9.282;2023-02-11T00:39:24;96523.06;;;-3.95;78.88
9855;BME280;4966;48.112;9.282;2023-02-11T00:41:49;96528.19;;;-4.00;78.72
9855;BME280;4966;48.112;9.282;2023-02-11T00:44:15;96522.19;;;-4.22;79.44
9855;BME280;4966;48.112;9.282;2023-02-11T00:46:40;96526.72;;;-4.16;79.53
9855;BME280;4966;48.112;9.282;2023-02-11T00:49:05;96527.16;;;-4.06;78.84
9855;BME280;4966;48.112;9.282;2023-02-11T00:51:31;96531.06;;;-3.89;77.49
9855;BME280;4966;48.112;9.282;2023-02-11T00:53:57;96526.94;;;-4.11;77.85
9855;BME280;4966;48.112;9.282;2023-02-11T00:56:22;96526.53;;;-4.08;77.88
9855;BME280;4966;48.112;9.282;2023-02-11T00:58:48;96533.97;;;-4.38;78.37
9855;BME280;4966;48.112;9.282;2023-02-11T01:01:13;96535.22;;;-4.34;78.02
9855;BME280;4966;48.112;9.282;2023-02-11T01:03:39;96546.06;;;-4.29;78.49
9855;BME280;4966;48.112;9.282;2023-02-11T01:06:06;96535.22;;;-4.34;77.80
9855;BME280;4966;48.112;9.282;2023-02-11T01:08:32;96542.38;;;-4.35;78.34
9855;BME280;4966;48.112;9.282;2023-02-11T01:11:00;96559.09;;;-4.47;78.66
9855;BME280;4966;48.112;9.282;2023-02-11T01:13:27;96551.13;;;-4.47;78.95
9855;BME280;4966;48.112;9.282;2023-02-11T01:15:53;96545.19;;;-4.50;79.40
9855;BME280;4966;48.112;9.282;2023-02-11T01:18:19;96549.69;;;-4.50;79.24
9855;BME280;4966;48.112;9.282;2023-02-11T01:20:44;96540.69;;;-4.49;79.29
9855;BME280;4966;48.112;9.282;2023-02-11T01:23:10;96551.50;;;-4.51;79.48
9855;BME280;4966;48.112;9.282;2023-02-11T01:25:35;96544.56;;;-4.52;79.67
9855;BME280;4966;48.112;9.282;2023-02-11T01:28:01;96535.44;;;-4.29;78.58
9855;BME280;4966;48.112;9.282;2023-02-11T01:30:26;96530.75;;;-4.27;78.00
9855;BME280;4966;48.112;9.282;2023-02-11T01:32:51;96526.81;;;-4.44;78.38
9855;BME280;4966;48.112;9.282;2023-02-11T01:35:17;96533.31;;;-4.54;78.23
9855;BME280;4966;48.112;9.282;2023-02-11T01:37:42;96530.66;;;-4.54;78.65
9855;BME280;4966;48.112;9.282;2023-02-11T01:40:13;96532.28;;;-4.53;78.13
9855;BME280;4966;48.112;9.282;2023-02-11T01:42:40;96528.78;;;-4.60;78.32
9855;BME280;4966;48.112;9.282;2023-02-11T01:45:41;96528.59;;;-4.58;77.59
9855;BME280;4966;48.112;9.282;2023-02-11T01:48:25;96520.22;;;-4.62;78.04
9855;BME280;4966;48.112;9.282;2023-02-11T01:50:56;96515.25;;;-4.65;77.99
9855;BME280;4966;48.112;9.282;2023-02-11T01:53:23;96510.44;;;-4.48;77.27
9855;BME280;4966;48.112;9.282;2023-02-11T01:56:08;96512.06;;;-4.54;76.79
9855;BME280;4966;48.112;9.282;2023-02-11T01:58:54;96519.44;;;-4.49;76.59
9855;BME280;4966;48.112;9.282;2023-02-11T02:01:24;96513.69;;;-4.53;75.96
9855;BME280;4966;48.112;9.282;2023-02-11T02:03:53;96514.53;;;-4.52;76.26
9855;BME280;4966;48.112;9.282;2023-02-11T02:06:29;96503.94;;;-4.39;75.37
9855;BME280;4966;48.112;9.282;2023-02-11T02:09:05;96503.72;;;-4.44;75.44
9855;BME280;4966;48.112;9.282;2023-02-11T02:11:31;96504.81;;;-4.73;76.69
9855;BME280;4966;48.112;9.282;2023-02-11T02:13:56;96489.25;;;-4.83;77.39
9855;BME280;4966;48.112;9.282;2023-02-11T02:16:28;96492.72;;;-4.82;77.65
9855;BME280;4966;48.112;9.282;2023-02-11T02:19:23;96483.34;;;-4.78;77.34
9855;BME280;4966;48.112;9.282;2023-02-11T02:24:55;96469.03;;;-4.84;77.69
9855;BME280;4966;48.112;9.282;2023-02-11T02:38:12;96456.59;;;-4.77;76.06
9855;BME280;4966;48.112;9.282;2023-02-11T02:40:47;96462.84;;;-4.98;76.49
9855;BME280;4966;48.112;9.282;2023-02-11T02:43:14;96454.03;;;-5.05;76.70
9855;BME280;4966;48.112;9.282;2023-02-11T02:45:40;96454.97;;;-5.13;77.28
9855;BME280;4966;48.112;9.282;2023-02-11T02:48:06;96445.44;;;-5.07;77.30
9855;BME280;4966;48.112;9.282;2023-02-11T02:50:38;96445.41;;;-5.14;77.49
9855;BME280;4966;48.112;9.282;2023-02-11T02:53:12;96443.91;;;-4.81;76.11
9855;BME280;4966;48.112;9.282;2023-02-11T02:55:51;96448.22;;;-4.80;75.45
9855;BME280;4966;48.112;9.282;2023-02-11T03:09:31;96441.94;;;-5.14;76.93
9855;BME280;4966;48.112;9.282;2023-02-11T03:11:59;96441.88;;;-5.21;77.73
9855;BME280;4966;48.112;9.282;2023-02-11T03:14:27;96439.97;;;-4.99;76.72
9855;BME280;4966;48.112;9.282;2023-02-11T03:16:56;96443.00;;;-5.02;76.99
9855;BME280;4966;48.112;9.282;2023-02-11T03:19:29;96439.81;;;-4.84;76.58
9855;BME280;4966;48.112;9.282;2023-02-11T03:21:57;96438.34;;;-5.00;76.79
9855;BME280;4966;48.112;9.282;2023-02-11T03:24:28;96437.44;;;-5.14;77.75
9855;BME280;4966;48.112;9.282;2023-02-11T03:26:57;96439.50;;;-5.09;77.93
9855;BME280;4966;48.112;9.282;2023-02-11T03:29:37;96436.47;;;-5.06;78.17
9855;BME280;4966;48.112;9.282;2023-02-11T03:32:13;96431.59;;;-4.96;78.10
9855;BME280;4966;48.112;9.282;2023-02-11T03:39:56;96435.22;;;-4.55;75.50
9855;BME280;4966;48.112;9.282;2023-02-11T03:42:27;96430.75;;;-4.55;74.72
9855;BME280;4966;48.112;9.282;2023-02-11T03:45:02;96436.69;;;-4.46;74.83
9855;BME280;4966;48.112;9.282;2023-02-11T03:47:31;96435.63;;;-4.58;75.37
9855;BME280;4966;48.112;9.282;2023-02-11T03:49:59;96433.31;;;-4.75;76.32
9855;BME280;4966;48.112;9.282;2023-02-11T03:52:27;96437.22;;;-4.71;75.90
9855;BME280;4966;48.112;9.282;2023-02-11T03:54:56;96438.22;;;-4.78;76.63
9855;BME280;4966;48.112;9.282;2023-02-11T03:57:22;96435.13;;;-4.82;77.48
9855;BME280;4966;48.112;9.282;2023-02-11T03:59:56;96439.84;;;-4.77;76.92
9855;BME280;4966;48.112;9.282;2023-02-11T04:02:25;96426.63;;;-4.64;76.47
9855;BME280;4966;48.112;9.282;2023-02-11T04:04:51;96425.13;;;-4.80;77.32
9855;BME280;4966;48.112;9.282;2023-02-11T04:07:16;96415.75;;;-5.24;78.35
9855;BME280;4966;48.112;9.282;2023-02-11T04:09:42;96424.25;;;-5.00;77.45
9855;BME280;4966;48.112;9.282;2023-02-11T04:12:07;96429.53;;;-5.07;77.15
9855;BME280;4966;48.112;9.282;2023-02-11T04:14:32;96436.91;;;-5.02;76.96
9855;BME280;4966;48.112;9.282;2023-02-11T04:16:58;96434.78;;;-5.14;77.56
9855;BME280;4966;48.112;9.282;2023-02-11T04:19:23;96448.59;;;-4.90;77.02
9855;BME280;4966;48.112;9.282;2023-02-11T04:21:49;96437.53;;;-4.94;77.36
9855;BME280;4966;48.112;9.282;2023-02-11T04:24:14;96438.91;;;-5.04;78.28
9855;BME280;4966;48.112;9.282;2023-02-11T04:26:40;96443.06;;;-4.88;77.73
9855;BME280;4966;48.112;9.282;2023-02-11T04:29:05;96453.97;;;-4.70;76.68
9855;BME280;4966;48.112;9.282;2023-02-11T04:31:31;96446.47;;;-4.53;75.40
9855;BME280;4966;48.112;9.282;2023-02-11T04:33:56;96442.94;;;-4.74;75.86
9855;BME280;4966;48.112;9.282;2023-02-11T04:36:21;96446.84;;;-4.63;75.93
9855;BME280;4966;48.112;9.282;2023-02-11T04:38:47;96450.31;;;-4.69;75.70
9855;BME280;4966;48.112;9.282;2023-02-11T04:41:12;96462.03;;;-4.50;75.20
9855;BME280;4966;48.112;9.282;2023-02-11T04:43:37;96476.56;;;-4.39;74.00
9855;BME280;4966;48.112;9.282;2023-02-11T04:46:03;96470.94;;;-4.71;75.52
9855;BME280;4966;48.112;9.282;2023-02-11T04:48:28;96478.72;;;-4.63;75.39
9855;BME280;4966;48.112;9.282;2023-02-11T04:50:53;96482.16;;;-4.76;75.63
9855;BME280;4966;48.112;9.282;2023-02-11T04:53:19;96483.13;;;-4.83;76.32
9855;BME280;4966;48.112;9.282;2023-02-11T04:55:48;96482.28;;;-4.84;76.44
9855;BME280;4966;48.112;9.282;2023-02-11T04:58:14;96476.59;;;-4.81;76.17
9855;BME280;4966;48.112;9.282;2023-02-11T05:00:39;96474.50;;;-4.92;76.33
9855;BME280;4966;48.112;9.282;2023-02-11T05:03:05;96476.53;;;-4.94;76.17
9855;BME280;4966;48.112;9.282;2023-02-11T05:05:30;96478.63;;;-5.24;77.24
9855;BME280;4966;48.112;9.282;2023-02-11T05:07:55;96461.50;;;-5.15;76.94
9855;BME280;4966;48.112;9.282;2023-02-11T05:10:21;96476.06;;;-5.04;76.54
9855;BME280;4966;48.112;9.282;2023-02-11T05:12:47;96458.34;;;-4.97;75.53
9855;BME280;4966;48.112;9.282;2023-02-11T05:15:13;96457.91;;;-5.01;75.34
9855;BME280;4966;48.112;9.282;2023-02-11T05:17:39;96459.47;;;-5.13;75.68
9855;BME280;4966;48.112;9.282;2023-02-11T05:20:05;96463.47;;;-5.30;76.63
9855;BME280;4966;48.112;9.282;2023-02-11T05:22:30;96468.13;;;-5.32;76.85
9855;BME280;4966;48.112;9.282;2023-02-11T05:24:55;96456.09;;;-5.35;77.68
9855;BME280;4966;48.112;9.282;2023-02-11T05:27:21;96460.03;;;-5.24;77.52
9855;BME280;4966;48.112;9.282;2023-02-11T05:29:46;96450.78;;;-5.00;76.96
9855;BME280;4966;48.112;9.282;2023-02-11T05:32:11;96459.88;;;-4.75;76.55
9855;BME280;4966;48.112;9.282;2023-02-11T05:34:37;96450.16;;;-5.02;77.82
9855;BME280;4966;48.112;9.282;2023-02-11T05:37:02;96449.41;;;-4.89;77.70
9855;BME280;4966;48.112;9.282;2023-02-11T05:39:27;96436.91;;;-4.96;78.50
9855;BME280;4966;48.112;9.282;2023-02-11T05:41:53;96438.59;;;-4.81;78.23
9855;BME280;4966;48.112;9.282;2023-02-11T05:44:18;96453.53;;;-4.80;78.00
9855;BME280;4966;48.112;9.282;2023-02-11T05:46:44;96446.81;;;-4.70;78.26
9855;BME280;4966;48.112;9.282;2023-02-11T05:49:09;96445.09;;;-4.42;77.15
9855;BME280;4966;48.112;9.282;2023-02-11T05:51:34;96435.25;;;-4.49;77.94
9855;BME280;4966;48.112;9.282;2023-02-11T05:54:00;96435.91;;;-4.40;77.39
9855;BME280;4966;48.112;9.282;2023-02-11T05:56:25;96438.19;;;-4.23;77.15
9855;BME280;4966;48.112;9.282;2023-02-11T05:58:50;96431.44;;;-4.19;77.29
9855;BME280;4966;48.112;9.282;2023-02-11T06:01:16;96432.41;;;-4.47;77.81
9855;BME280;4966;48.112;9.282;2023-02-11T06:03:41;96427.94;;;-4.27;77.65
9855;BME280;4966;48.112;9.282;2023-02-11T06:06:11;96414.28;;;-4.23;76.79
9855;BME280;4966;48.112;9.282;2023-02-11T06:08:36;96415.03;;;-4.50;77.49
9855;BME280;4966;48.112;9.282;2023-02-11T06:11:01;96413.88;;;-4.20;76.02
9855;BME280;4966;48.112;9.282;2023-02-11T06:13:27;96414.25;;;-4.30;76.05
9855;BME280;4966;48.112;9.282;2023-02-11T06:15:59;96407.50;;;-4.19;75.70
9855;BME280;4966;48.112;9.282;2023-02-11T06:18:25;96411.81;;;-4.25;75.79
9855;BME280;4966;48.112;9.282;2023-02-11T06:20:51;96423.41;;;-4.46;77.10
9855;BME280;4966;48.112;9.282;2023-02-11T06:23:16;96407.91;;;-4.42;76.67
9855;BME280;4966;48.112;9.282;2023-02-11T06:25:41;96409.13;;;-4.45;77.20
9855;BME280;4966;48.112;9.282;2023-02-11T06:28:07;96408.72;;;-4.42;77.61
9855;BME280;4966;48.112;9.282;2023-02-11T06:30:35;96404.03;;;-4.40;77.79
9855;BME280;4966;48.112;9.282;2023-02-11T06:33:01;96399.72;;;-4.34;77.75
9855;BME280;4966;48.112;9.282;2023-02-11T06:35:26;96406.28;;;-4.30;77.76
9855;BME280;4966;48.112;9.282;2023-02-11T06:37:52;96403.03;;;-4.12;77.17
9855;BME280;4966;48.112;9.282;2023-02-11T06:40:18;96419.81;;;-3.98;76.26
9855;BME280;4966;48.112;9.282;2023-02-11T06:42:43;96420.44;;;-3.83;76.28
9855;BME280;4966;48.112;9.282;2023-02-11T06:45:09;96413.66;;;-4.06;76.52
9855;BME280;4966;48.112;9.282;2023-02-11T06:47:37;96419.59;;;-4.10;77.14
9855;BME280;4966;48.112;9.282;2023-02-11T06:50:03;96408.53;;;-4.07;77.42
9855;BME280;4966;48.112;9.282;2023-02-11T06:52:29;96398.13;;;-3.95;77.79
9855;BME280;4966;48.112;9.282;2023-02-11T06:54:54;96402.22;;;-3.86;77.66
9855;BME280;4966;48.112;9.282;2023-02-11T06:57:19;96407.94;;;-3.56;76.25
9855;BME280;4966;48.112;9.282;2023-02-11T06:59:45;96414.88;;;-3.35;73.91
9855;BME280;4966;48.112;9.282;2023-02-11T07:02:10;96425.53;;;-3.55;74.60
9855;BME280;4966;48.112;9.282;2023-02-11T07:04:36;96433.31;;;-3.67;76.36
9855;BME280;4966;48.112;9.282;2023-02-11T07:07:01;96431.03;;;-3.50;76.10
9855;BME280;4966;48.112;9.282;2023-02-11T07:09:26;96435.09;;;-3.14;75.66
9855;BME280;4966;48.112;9.282;2023-02-11T07:11:52;96451.66;;;-2.98;74.90
9855;BME280;4966;48.112;9.282;2023-02-11T07:14:17;96443.06;;;-3.01;75.54
9855;BME280;4966;48.112;9.282;2023-02-11T07:16:42;96459.19;;;-2.89;75.81
9855;BME280;4966;48.112;9.282;2023-02-11T07:19:08;96458.59;;;-2.91;76.07
9855;BME280;4966;48.112;9.282;2023-02-11T07:21:33;96445.28;;;-2.97;76.11
9855;BME280;4966;48.112;9.282;2023-02-11T07:23:59;96450.75;;;-2.72;75.54
9855;BME280;4966;48.112;9.282;2023-02-11T07:26:24;96453.16;;;-2.64;75.78
9855;BME280;4966;48.112;9.282;2023-02-11T07:28:50;96455.97;;;-2.46;75.81
9855;BME280;4966;48.112;9.282;2023-02-11T07:31:22;96461.94;;;-2.50;75.88
9855;BME280;4966;48.112;9.282;2023-02-11T07:33:48;96456.31;;;-2.29;74.66
9855;BME280;4966;48.112;9.282;2023-02-11T07:36:15;96461.03;;;-2.38;75.13
9855;BME280;4966;48.112;9.282;2023-02-11T07:38:41;96452.34;;;-2.20;75.10
9855;BME280;4966;48.112;9.282;2023-02-11T07:41:09;96456.44;;;-2.17;75.21
9855;BME280;4966;48.112;9.282;2023-02-11T07:43:36;96465.84;;;-2.08;74.10
9855;BME280;4966;48.112;9.282;2023-02-11T07:46:03;96466.94;;;-1.90;74.46
9855;BME280;4966;48.112;9.282;2023-02-11T07:48:29;96455.34;;;-2.03;74.47
9855;BME280;4966;48.112;9.282;2023-02-11T07:50:54;96444.53;;;-1.83;74.22
9855;BME280;4966;48.112;9.282;2023-02-11T07:53:19;96447.44;;;-1.59;73.46
9855;BME280;4966;48.112;9.282;2023-02-11T07:55:45;96443.78;;;-1.40;73.76
9855;BME280;4966;48.112;9.282;2023-02-11T07:58:10;96452.28;;;-1.24;73.54
9855;BME280;4966;48.112;9.282;2023-02-11T08:00:36;96447.63;;;-0.92;71.52
9855;BME280;4966;48.112;9.282;2023-02-11T08:03:01;96455.72;;;-0.99;71.66
9855;BME280;4966;48.112;9.282;2023-02-11T08:05:27;96455.50;;;-0.97;71.88
9855;BME280;4966;48.112;9.282;2023-02-11T08:07:53;96457.94;;;-0.77;72.06
9855;BME280;4966;48.112;9.282;2023-02-11T08:10:19;96459.81;;;-0.78;71.14
9855;BME280;4966;48.112;9.282;2023-02-11T08:12:45;96455.53;;;-0.79;71.17
9855;BME280;4966;48.112;9.282;2023-02-11T08:15:10;96445.47;;;-0.65;71.26
9855;BME280;4966;48.112;9.282;2023-02-11T08:17:36;96455.94;;;-0.82;71.62
9855;BME280;4966;48.112;9.282;2023-02-11T08:20:03;96442.09;;;-0.91;72.09
9855;BME280;4966;48.112;9.282;2023-02-11T08:22:35;96433.41;;;-0.86;72.67
9855;BME280;4966;48.112;9.282;2023-02-11T08:25:00;96431.31;;;-0.66;71.29
9855;BME280;4966;48.112;9.282;2023-02-11T08:27:26;96416.84;;;-0.28;70.84
9855;BME280;4966;48.112;9.282;2023-02-11T08:29:52;96400.28;;;-0.36;71.45
9855;BME280;4966;48.112;9.282;2023-02-11T08:32:18;96395.81;;;-0.54;72.25
9855;BME280;4966;48.112;9.282;2023-02-11T08:34:43;96400.38;;;-0.13;71.14
9855;BME280;4966;48.112;9.282;2023-02-11T08:37:08;96405.69;;;0.06;70.65
9855;BME280;4966;48.112;9.282;2023-02-11T08:39:34;96398.13;;;0.14;70.46
9855;BME280;4966;48.112;9.282;2023-02-11T08:41:59;96399.94;;;0.44;69.17
9855;BME280;4966;48.112;9.282;2023-02-11T08:44:25;96417.28;;;0.53;69.89
9855;BME280;4966;48.112;9.282;2023-02-11T08:46:51;96410.88;;;0.90;68.52
9855;BME280;4966;48.112;9.282;2023-02-11T08:49:17;96407.84;;;0.86;69.33
9855;BME280;4966;48.112;9.282;2023-02-11T08:51:43;96401.78;;;0.79;68.51
9855;BME280;4966;48.112;9.282;2023-02-11T08:54:09;96417.75;;;0.85;68.42
9855;BME280;4966;48.112;9.282;2023-02-11T08:56:36;96409.72;;;0.97;67.38
9855;BME280;4966;48.112;9.282;2023-02-11T08:59:02;96410.78;;;0.96;67.10
9855;BME280;4966;48.112;9.282;2023-02-11T09:01:29;96417.03;;;1.14;67.08
9855;BME280;4966;48.112;9.282;2023-02-11T09:03:56;96423.22;;;0.79;67.80
9855;BME280;4966;48.112;9.282;2023-02-11T09:06:22;96424.16;;;0.96;67.97
9855;BME280;4966;48.112;9.282;2023-02-11T09:08:51;96427.06;;;0.95;67.24
9855;BME280;4966;48.112;9.282;2023-02-11T09:11:20;96432.03;;;1.38;66.73
9855;BME280;4966;48.112;9.282;2023-02-11T09:13:46;96450.66;;;1.57;65.82
9855;BME280;4966;48.112;9.282;2023-02-11T09:16:17;96447.97;;;1.57;65.57
9855;BME280;4966;48.112;9.282;2023-02-11T09:18:43;96448.13;;;1.79;65.65
9855;BME280;4966;48.112;9.282;2023-02-11T09:21:10;96451.16;;;1.42;66.82
9855;BME280;4966;48.112;9.282;2023-02-11T09:23:36;96461.69;;;1.20;67.51
9855;BME280;4966;48.112;9.282;2023-02-11T09:26:22;96469.91;;;1.42;67.03
9855;BME280;4966;48.112;9.282;2023-02-11T09:28:48;96461.06;;;1.41;67.12
9855;BME280;4966;48.112;9.282;2023-02-11T09:31:16;96466.84;;;1.50;67.00
9855;BME280;4966;48.112;9.282;2023-02-11T09:33:44;96459.16;;;1.54;66.65
9855;BME280;4966;48.112;9.282;2023-02-11T09:36:14;96461.13;;;1.70;65.87
9855;BME280;4966;48.112;9.282;2023-02-11T09:38:40;96466.06;;;1.90;65.29
9855;BME280;4966;48.112;9.282;2023-02-11T09:43:50;96453.44;;;2.19;64.36
9855;BME280;4966;48.112;9.282;2023-02-11T09:46:16;96461.75;;;2.34;64.21
9855;BME280;4966;48.112;9.282;2023-02-11T09:48:44;96452.78;;;2.12;64.37
9855;BME280;4966;48.112;9.282;2023-02-11T09:51:28;96454.25;;;2.20;64.10
9855;BME280;4966;48.112;9.282;2023-02-11T09:54:04;96450.72;;;2.02;64.90
9855;BME280;4966;48.112;9.282;2023-02-11T09:56:31;96444.19;;;1.98;64.91
9855;BME280;4966;48.112;9.282;2023-02-11T09:58:57;96441.69;;;2.37;64.73
9855;BME280;4966;48.112;9.282;2023-02-11T10:01:44;96436.84;;;1.65;68.28
9855;BME280;4966;48.112;9.282;2023-02-11T10:04:21;96443.81;;;2.52;66.45
9855;BME280;4966;48.112;9.282;2023-02-11T10:06:54;96449.03;;;2.75;65.54
9855;BME280;4966;48.112;9.282;2023-02-11T10:15:18;96444.50;;;3.15;63.59
9855;BME280;4966;48.112;9.282;2023-02-11T10:17:57;96436.84;;;3.24;63.64
9855;BME280;4966;48.112;9.282;2023-02-11T10:20:47;96453.44;;;3.81;62.67
9855;BME280;4966;48.112;9.282;2023-02-11T10:23:22;96436.16;;;4.26;61.20
9855;BME280;4966;48.112;9.282;2023-02-11T10:25:51;96427.88;;;4.06;63.03
9855;BME280;4966;48.112;9.282;2023-02-11T10:28:23;96429.97;;;3.77;62.43
9855;BME280;4966;48.112;9.282;2023-02-11T10:31:08;96428.94;;;3.83;62.80
9855;BME280;4966;48.112;9.282;2023-02-11T10:33:45;96427.38;;;3.87;61.49
9855;BME280;4966;48.112;9.282;2023-02-11T10:36:15;96422.47;;;4.06;60.90
9855;BME280;4966;48.112;9.282;2023-02-11T10:38:42;96421.81;;;4.21;60.23
9855;BME280;4966;48.112;9.282;2023-02-11T10:41:12;96427.44;;;4.46;60.10
9855;BME280;4966;48.112;9.282;2023-02-11T10:43:41;96410.59;;;4.99;59.70
9855;BME280;4966;48.112;9.282;2023-02-11T10:46:15;96400.94;;;4.65;58.63
9855;BME280;4966;48.112;9.282;2023-02-11T10:48:44;96398.06;;;4.77;58.85
9855;BME280;4966;48.112;9.282;2023-02-11T10:51:22;96395.56;;;4.71;59.51
9855;BME280;4966;48.112;9.282;2023-02-11T10:54:14;96390.00;;;4.82;57.65
9855;BME280;4966;48.112;9.282;2023-02-11T10:56:48;96385.53;;;4.61;58.64
9855;BME280;4966;48.112;9.282;2023-02-11T10:59:33;96399.72;;;4.51;59.13
9855;BME280;4966;48.112;9.282;2023-02-11T11:02:23;96376.41;;;4.67;58.91
9855;BME280;4966;48.112;9.282;2023-02-11T11:04:57;96368.47;;;4.87;58.28
9855;BME280;4966;48.112;9.282;2023-02-11T11:07:25;96369.19;;;5.20;58.15
9855;BME280;4966;48.112;9.282;2023-02-11T11:10:10;96375.47;;;5.36;56.99
9855;BME280;4966;48.112;9.282;2023-02-11T11:12:47;96371.84;;;5.73;57.22
9855;BME280;4966;48.112;9.282;2023-02-11T11:17:42;96370.59;;;6.06;56.39
9855;BME280;4966;48.112;9.282;2023-02-11T11:22:43;96359.28;;;6.76;54.38
9855;BME280;4966;48.112;9.282;2023-02-11T11:27:49;96349.00;;;6.78;53.59
9855;BME280;4966;48.112;9.282;2023-02-11T11:30:15;96359.19;;;7.17;51.11
9855;BME280;4966;48.112;9.282;2023-02-11T11:32:42;96360.50;;;7.95;48.99
9855;BME280;4966;48.112;9.282;2023-02-11T11:35:22;96344.50;;;8.38;48.99
9855;BME280;4966;48.112;9.282;2023-02-11T11:37:53;96353.28;;;8.93;47.75
9855;BME280;4966;48.112;9.282;2023-02-11T11:40:25;96342.47;;;9.41;45.78
9855;BME280;4966;48.112;9.282;2023-02-11T11:45:38;96340.69;;;9.02;46.24
9855;BME280;4966;48.112;9.282;2023-02-11T11:51:03;96343.94;;;8.46;45.83
9855;BME280;4966;48.112;9.282;2023-02-11T11:53:45;96348.56;;;8.45;45.84
9855;BME280;4966;48.112;9.282;2023-02-11T11:56:25;96342.63;;;8.33;45.99
9855;BME280;4966;48.112;9.282;2023-02-11T11:58:51;96349.34;;;8.01;46.38
9855;BME280;4966;48.112;9.282;2023-02-11T12:06:56;96322.53;;;11.11;41.95
9855;BME280;4966;48.112;9.282;2023-02-11T12:12:09;96317.88;;;13.70;36.12
9855;BME280;4966;48.112;9.282;2023-02-11T12:14:54;96316.44;;;15.88;34.14
9855;BME280;4966;48.112;9.282;2023-02-11T12:17:57;96306.69;;;15.70;33.14
9855;BME280;4966;48.112;9.282;2023-02-11T12:26:23;96290.25;;;16.75;30.86
9855;BME280;4966;48.112;9.282;2023-02-11T12:48:47;96276.63;;;13.57;36.10
9855;BME280;4966;48.112;9.282;2023-02-11T12:54:01;96273.13;;;12.86;36.86
9855;BME280;4966;48.112;9.282;2023-02-11T12:56:56;96274.19;;;12.76;38.31
9855;BME280;4966;48.112;9.282;2023-02-11T12:59:39;96271.50;;;12.85;37.43
9855;BME280;4966;48.112;9.282;2023-02-11T13:04:47;96261.00;;;12.69;37.65
9855;BME280;4966;48.112;9.282;2023-02-11T13:07:18;96267.72;;;12.41;37.77
9855;BME280;4966;48.112;9.282;2023-02-11T13:10:00;96258.97;;;12.52;38.23
9855;BME280;4966;48.112;9.282;2023-02-11T13:12:30;96266.59;;;11.69;38.95
9855;BME280;4966;48.112;9.282;2023-02-11T13:15:15;96257.44;;;11.51;39.01
9855;BME280;4966;48.112;9.282;2023-02-11T13:17:52;96261.69;;;11.43;39.19
9855;BME280;4966;48.112;9.282;2023-02-11T13:23:41;96264.84;;;11.73;39.02
9855;BME280;4966;48.112;9.282;2023-02-11T13:26:18;96256.53;;;11.56;39.09
9855;BME280;4966;48.112;9.282;2023-02-11T13:31:41;96255.72;;;12.05;37.96
9855;BME280;4966;48.112;9.282;2023-02-11T13:34:33;96254.59;;;12.51;37.54
9855;BME280;4966;48.112;9.282;2023-02-11T13:37:24;96251.44;;;12.89;36.66
9855;BME280;4966;48.112;9.282;2023-02-11T13:40:03;96261.22;;;13.22;36.12
9855;BME280;4966;48.112;9.282;2023-02-11T13:42:29;96257.06;;;13.24;36.16
9855;BME280;4966;48.112;9.282;2023-02-11T13:44:57;96241.50;;;12.93;36.70
9855;BME280;4966;48.112;9.282;2023-02-11T13:47:33;96246.22;;;12.70;36.91
9855;BME280;4966;48.112;9.282;2023-02-11T13:50:04;96260.41;;;11.77;37.93
9855;BME280;4966;48.112;9.282;2023-02-11T13:52:36;96254.97;;;11.91;37.94
9855;BME280;4966;48.112;9.282;2023-02-11T13:55:19;96246.88;;;12.00;38.32
9855;BME280;4966;48.112;9.282;2023-02-11T14:14:17;96243.72;;;10.73;40.29
9855;BME280;4966;48.112;9.282;2023-02-11T14:19:33;96253.84;;;11.28;40.21
9855;BME280;4966;48.112;9.282;2023-02-11T14:37:28;96239.47;;;11.64;39.58
9855;BME280;4966;48.112;9.282;2023-02-11T14:39:57;96243.16;;;11.04;40.01
9855;BME280;4966;48.112;9.282;2023-02-11T14:42:28;96250.72;;;11.07;39.75
9855;BME280;4966;48.112;9.282;2023-02-11T14:44:57;96247.59;;;11.00;39.64
9855;BME280;4966;48.112;9.282;2023-02-11T14:48:01;96244.88;;;11.00;40.35
9855;BME280;4966;48.112;9.282;2023-02-11T14:50:36;96247.56;;;11.27;39.83
9855;BME280;4966;48.112;9.282;2023-02-11T14:53:02;96246.41;;;11.56;40.16
9855;BME280;4966;48.112;9.282;2023-02-11T14:55:35;96249.25;;;11.51;39.79
9855;BME280;4966;48.112;9.282;2023-02-11T15:01:24;96253.75;;;11.97;39.72
9855;BME280;4966;48.112;9.282;2023-02-11T15:03:56;96242.97;;;12.15;39.25
9855;BME280;4966;48.112;9.282;2023-02-11T15:06:27;96245.19;;;12.35;38.13
9855;BME280;4966;48.112;9.282;2023-02-11T15:08:54;96243.38;;;12.53;37.73
9855;BME280;4966;48.112;9.282;2023-02-11T15:11:23;96245.69;;;12.60;37.35
9855;BME280;4966;48.112;9.282;2023-02-11T15:13:50;96246.19;;;12.93;36.75
9855;BME280;4966;48.112;9.282;2023-02-11T15:16:19;96247.47;;;13.35;36.74
9855;BME280;4966;48.112;9.282;2023-02-11T15:18:53;96248.88;;;13.81;35.84
9855;BME280;4966;48.112;9.282;2023-02-11T15:21:23;96249.63;;;14.78;34.62
9855;BME280;4966;48.112;9.282;2023-02-11T15:24:20;96241.59;;;15.49;33.13
9855;BME280;4966;48.112;9.282;2023-02-11T15:29:40;96246.50;;;16.15;32.52
9855;BME280;4966;48.112;9.282;2023-02-11T15:32:13;96245.75;;;16.27;31.71
9855;BME280;4966;48.112;9.282;2023-02-11T15:34:39;96256.09;;;15.50;32.49
9855;BME280;4966;48.112;9.282;2023-02-11T15:37:05;96251.00;;;15.01;33.58
9855;BME280;4966;48.112;9.282;2023-02-11T15:39:39;96248.34;;;13.71;35.47
9855;BME280;4966;48.112;9.282;2023-02-11T15:44:41;96258.84;;;12.12;38.96
9855;BME280;4966;48.112;9.282;2023-02-11T15:47:11;96245.78;;;11.87;39.64
9855;BME280;4966;48.112;9.282;2023-02-11T15:49:38;96255.69;;;11.69;40.14
9855;BME280;4966;48.112;9.282;2023-02-11T15:52:08;96247.94;;;11.48;40.90
9855;BME280;4966;48.112;9.282;2023-02-11T15:54:33;96258.69;;;11.17;41.45
9855;BME280;4966;48.112;9.282;2023-02-11T15:57:04;96257.03;;;10.89;41.89